createdAt,value
2018-05-26T00:01:28.292Z,9.03
2018-05-26T00:03:54.509Z,9.70
2018-05-26T00:06:20.725Z,9.50
2018-05-26T00:08:46.939Z,9.00
2018-05-26T00:11:14.088Z,9.83
2018-05-26T00:13:41.060Z,9.30
2018-05-26T00:16:07.302Z,9.40
2018-05-26T00:18:33.516Z,9.33
2018-05-26T00:20:59.744Z,9.47
2018-05-26T00:23:25.978Z,9.93
2018-05-26T00:25:52.216Z,10.00
2018-05-26T00:28:19.183Z,9.80
2018-05-26T00:30:46.017Z,9.77
2018-05-26T00:33:13.499Z,9.10
2018-05-26T00:35:40.452Z,10.53
2018-05-26T00:38:07.416Z,9.33
2018-05-26T00:40:33.612Z,9.83
2018-05-26T00:42:59.882Z,9.23
2018-05-26T00:45:26.087Z,9.63
2018-05-26T00:47:53.073Z,10.53
2018-05-26T00:50:19.309Z,9.20
2018-05-26T00:52:45.668Z,9.80
2018-05-26T00:55:12.615Z,9.63
2018-05-26T00:57:38.813Z,10.03
2018-05-26T01:00:05.052Z,11.40
2018-05-26T01:02:32.094Z,10.07
2018-05-26T01:05:03.211Z,9.03
2018-05-26T01:07:29.668Z,10.53
2018-05-26T01:09:56.690Z,10.93
2018-05-26T01:12:23.038Z,9.90
2018-05-26T01:14:49.411Z,10.03
2018-05-26T01:17:16.144Z,11.23
2018-05-26T01:19:42.537Z,10.50
2018-05-26T01:22:08.767Z,9.57
2018-05-26T01:24:35.025Z,9.93
2018-05-26T01:27:01.321Z,9.97
2018-05-26T01:29:27.520Z,10.17
2018-05-26T01:31:53.782Z,9.73
2018-05-26T01:34:19.992Z,11.07
2018-05-26T01:36:46.201Z,10.20
2018-05-26T01:39:12.417Z,11.87
2018-05-26T01:41:39.392Z,10.60
2018-05-26T01:44:05.641Z,10.83
2018-05-26T01:46:31.845Z,10.67
2018-05-26T01:48:58.070Z,13.87
2018-05-26T01:51:24.327Z,11.63
2018-05-26T01:53:50.572Z,11.40
2018-05-26T01:56:18.385Z,11.17
2018-05-26T01:58:44.632Z,12.87
2018-05-26T02:01:10.877Z,10.63
2018-05-26T02:03:37.120Z,11.20
2018-05-26T02:06:03.335Z,10.70
2018-05-26T02:08:29.545Z,10.63
2018-05-26T02:10:55.748Z,11.17
2018-05-26T02:13:22.010Z,11.27
2018-05-26T02:15:48.979Z,11.67
2018-05-26T02:18:15.942Z,11.43
2018-05-26T02:20:42.923Z,12.00
2018-05-26T02:23:09.153Z,11.17
2018-05-26T02:25:35.442Z,11.73
2018-05-26T02:28:01.828Z,11.30
2018-05-26T02:30:28.090Z,11.60
2018-05-26T02:32:54.349Z,11.87
2018-05-26T02:35:20.572Z,12.17
2018-05-26T02:37:46.769Z,12.03
2018-05-26T02:40:12.990Z,11.93
2018-05-26T02:42:39.195Z,11.07
2018-05-26T02:45:05.427Z,12.53
2018-05-26T02:47:31.851Z,11.57
2018-05-26T02:49:58.197Z,12.10
2018-05-26T02:52:24.408Z,11.50
2018-05-26T02:54:50.633Z,12.40
2018-05-26T02:57:16.863Z,12.90
2018-05-26T02:59:43.966Z,12.30
2018-05-26T03:02:10.969Z,17.13
2018-05-26T03:04:44.424Z,12.27
2018-05-26T03:07:16.736Z,13.67
2018-05-26T03:09:49.005Z,13.90
2018-05-26T03:12:21.238Z,13.07
2018-05-26T03:14:47.438Z,13.10
2018-05-26T03:17:18.453Z,12.60
2018-05-26T03:19:44.675Z,13.10
2018-05-26T03:22:10.976Z,14.03
2018-05-26T03:24:37.197Z,13.53
2018-05-26T03:27:03.412Z,13.97
2018-05-26T03:29:29.635Z,13.63
2018-05-26T03:31:55.881Z,13.70
2018-05-26T03:34:23.196Z,15.10
2018-05-26T03:36:50.144Z,14.37
2018-05-26T03:39:17.146Z,14.40
2018-05-26T03:41:43.504Z,14.00
2018-05-26T03:44:09.748Z,13.93
2018-05-26T03:46:36.722Z,13.50
2018-05-26T03:49:02.925Z,13.47
2018-05-26T03:51:29.135Z,14.13
2018-05-26T03:53:55.349Z,13.03
2018-05-26T03:56:33.918Z,14.07
2018-05-26T03:59:12.408Z,13.73
2018-05-26T04:01:39.375Z,14.90
2018-05-26T04:04:05.609Z,14.03
2018-05-26T04:06:31.828Z,16.07
2018-05-26T04:08:58.041Z,15.77
2018-05-26T04:11:25.063Z,14.37
2018-05-26T04:13:51.248Z,14.93
2018-05-26T04:16:17.486Z,15.93
2018-05-26T04:18:43.885Z,16.33
2018-05-26T04:21:10.130Z,15.73
2018-05-26T04:23:36.371Z,14.97
2018-05-26T04:26:02.588Z,15.63
2018-05-26T04:28:28.814Z,16.80
2018-05-26T04:30:55.045Z,15.37
2018-05-26T04:33:21.277Z,14.70
2018-05-26T04:35:47.517Z,15.13
2018-05-26T04:38:13.733Z,14.20
2018-05-26T04:40:39.937Z,16.27
2018-05-26T04:43:06.148Z,14.50
2018-05-26T04:45:33.274Z,14.87
2018-05-26T04:47:59.491Z,14.23
2018-05-26T04:50:25.953Z,15.10
2018-05-26T04:52:52.960Z,13.43
2018-05-26T04:55:19.170Z,14.23
2018-05-26T04:57:45.426Z,14.77
2018-05-26T05:00:12.397Z,14.47
2018-05-26T05:02:39.375Z,15.23
2018-05-26T05:05:05.601Z,13.70
2018-05-26T05:07:31.860Z,14.17
2018-05-26T05:09:58.141Z,15.07
2018-05-26T05:12:24.396Z,13.80
2018-05-26T05:14:50.595Z,14.40
2018-05-26T05:17:16.834Z,14.50
2018-05-26T05:19:43.069Z,15.83
2018-05-26T05:22:09.304Z,14.93
2018-05-26T05:24:35.525Z,14.40
2018-05-26T05:27:01.811Z,13.63
2018-05-26T05:29:28.788Z,16.03
2018-05-26T05:31:56.746Z,12.77
2018-05-26T05:34:23.739Z,14.07
2018-05-26T05:36:49.976Z,12.13
2018-05-26T05:39:16.163Z,13.33
2018-05-26T05:41:42.432Z,12.70
2018-05-26T05:44:08.636Z,12.10
2018-05-26T05:46:34.886Z,12.63
2018-05-26T05:49:01.131Z,11.73
2018-05-26T05:51:27.329Z,11.70
2018-05-26T05:53:53.576Z,11.53
2018-05-26T05:56:20.583Z,11.80
2018-05-26T05:58:46.863Z,12.07
2018-05-26T06:01:13.117Z,10.73
2018-05-26T06:03:39.293Z,11.40
2018-05-26T06:06:05.529Z,11.67
2018-05-26T06:08:31.752Z,10.07
2018-05-26T06:10:57.966Z,10.53
2018-05-26T06:13:24.188Z,10.67
2018-05-26T06:15:50.395Z,10.60
2018-05-26T06:18:16.657Z,10.43
2018-05-26T06:20:42.893Z,9.87
2018-05-26T06:23:09.154Z,9.47
2018-05-26T06:25:35.553Z,9.87
2018-05-26T06:28:01.765Z,8.87
2018-05-26T06:30:27.994Z,8.20
2018-05-26T06:32:54.203Z,8.53
2018-05-26T06:35:20.414Z,7.60
2018-05-26T06:37:46.729Z,8.73
2018-05-26T06:40:13.744Z,7.90
2018-05-26T06:42:40.040Z,9.70
2018-05-26T06:45:06.252Z,7.80
2018-05-26T06:47:32.496Z,9.00
2018-05-26T06:49:58.722Z,6.80
2018-05-26T06:52:24.981Z,7.23
2018-05-26T06:54:51.261Z,7.43
2018-05-26T06:57:17.637Z,7.47
2018-05-26T06:59:43.970Z,7.23
2018-05-26T07:02:10.289Z,7.33
2018-05-26T07:04:36.493Z,7.03
2018-05-26T07:07:02.757Z,8.27
2018-05-26T07:09:30.347Z,6.27
2018-05-26T07:11:57.309Z,6.80
2018-05-26T07:14:24.378Z,5.70
2018-05-26T07:16:50.645Z,6.82
2018-05-26T07:19:16.927Z,5.80
2018-05-26T07:21:43.141Z,4.90
2018-05-26T07:24:09.360Z,4.43
2018-05-26T07:26:35.616Z,5.68
2018-05-26T07:29:01.900Z,5.00
2018-05-26T07:31:28.887Z,5.40
2018-05-26T07:33:55.122Z,4.78
2018-05-26T07:36:21.419Z,6.93
2018-05-26T07:38:47.693Z,4.65
2018-05-26T07:41:13.894Z,4.47
2018-05-26T07:43:40.131Z,4.75
2018-05-26T07:46:06.348Z,4.28
2018-05-26T07:48:32.558Z,4.95
2018-05-26T07:50:58.763Z,4.70
2018-05-26T07:53:25.066Z,4.37
2018-05-26T07:55:51.272Z,4.55
2018-05-26T07:58:17.497Z,4.57
2018-05-26T08:00:43.810Z,4.85
2018-05-26T08:03:10.008Z,4.15
2018-05-26T08:05:36.228Z,4.95
2018-05-26T08:08:02.432Z,4.18
2018-05-26T08:10:28.676Z,4.62
2018-05-26T08:12:54.937Z,4.40
2018-05-26T08:15:21.192Z,4.97
2018-05-26T08:17:47.408Z,5.72
2018-05-26T08:20:13.641Z,3.83
2018-05-26T08:22:39.857Z,4.40
2018-05-26T08:25:06.132Z,4.97
2018-05-26T08:27:32.472Z,4.28
2018-05-26T08:29:58.732Z,3.85
2018-05-26T08:32:25.413Z,3.90
2018-05-26T08:34:51.652Z,3.85
2018-05-26T08:37:17.874Z,3.30
2018-05-26T08:39:44.100Z,3.53
2018-05-26T08:42:10.379Z,3.30
2018-05-26T08:44:37.328Z,4.50
2018-05-26T08:47:03.579Z,3.20
2018-05-26T08:49:29.824Z,3.58
2018-05-26T08:51:56.072Z,3.47
2018-05-26T08:54:22.330Z,9.05
2018-05-26T08:56:49.313Z,2.92
2018-05-26T08:59:15.540Z,3.42
2018-05-26T09:01:41.762Z,4.37
2018-05-26T09:04:08.000Z,3.22
2018-05-26T09:06:34.305Z,4.40
2018-05-26T09:09:00.561Z,3.33
2018-05-26T09:11:26.783Z,4.22
2018-05-26T09:13:53.029Z,3.37
2018-05-26T09:16:19.513Z,3.55
2018-05-26T09:18:46.885Z,3.05
2018-05-26T09:21:13.157Z,4.97
2018-05-26T09:23:39.473Z,4.53
2018-05-26T09:26:05.692Z,4.90
2018-05-26T09:28:31.913Z,3.12
2018-05-26T09:30:58.126Z,3.12
2018-05-26T09:33:24.331Z,4.90
2018-05-26T09:35:51.284Z,3.37
2018-05-26T09:38:18.236Z,4.47
2018-05-26T09:40:44.546Z,2.90
2018-05-26T09:43:11.528Z,3.20
2018-05-26T09:45:37.768Z,4.45
2018-05-26T09:48:03.979Z,3.80
2018-05-26T09:50:30.218Z,2.97
2018-05-26T09:52:56.432Z,3.87
2018-05-26T09:55:22.668Z,3.67
2018-05-26T09:57:48.891Z,3.40
2018-05-26T10:00:15.206Z,3.25
2018-05-26T10:02:41.434Z,2.90
2018-05-26T10:05:07.636Z,6.18
2018-05-26T10:07:33.896Z,2.70
2018-05-26T10:10:00.096Z,2.50
2018-05-26T10:12:27.044Z,2.72
2018-05-26T10:14:53.624Z,2.95
2018-05-26T10:17:19.868Z,3.05
2018-05-26T10:19:46.150Z,2.90
2018-05-26T10:22:12.422Z,2.90
2018-05-26T10:24:38.639Z,3.25
2018-05-26T10:27:04.882Z,3.00
2018-05-26T10:29:31.148Z,3.65
2018-05-26T10:31:58.136Z,3.85
2018-05-26T10:34:25.187Z,3.20
2018-05-26T10:36:51.412Z,3.15
2018-05-26T10:39:17.676Z,3.45
2018-05-26T10:41:44.732Z,3.60
2018-05-26T10:44:11.123Z,3.45
2018-05-26T10:46:37.349Z,3.22
2018-05-26T10:49:03.577Z,3.72
2018-05-26T10:51:29.780Z,4.37
2018-05-26T10:53:56.093Z,3.22
2018-05-26T10:56:23.081Z,3.37
2018-05-26T10:58:49.328Z,3.67
2018-05-26T11:01:15.565Z,3.97
2018-05-26T11:03:41.763Z,3.90
2018-05-26T11:06:07.981Z,3.55
2018-05-26T11:08:34.198Z,3.30
2018-05-26T11:11:00.489Z,4.97
2018-05-26T11:13:27.559Z,4.60
2018-05-26T11:15:54.843Z,5.03
2018-05-26T11:18:21.821Z,5.22
2018-05-26T11:20:48.047Z,3.17
2018-05-26T11:23:14.343Z,3.50
2018-05-26T11:25:40.599Z,3.17
2018-05-26T11:28:06.828Z,2.95
2018-05-26T11:30:33.074Z,2.80
2018-05-26T11:33:00.182Z,3.03
2018-05-26T11:35:27.151Z,4.20
2018-05-26T11:37:53.395Z,11.10
2018-05-26T11:40:20.086Z,16.87
2018-05-26T11:42:46.343Z,9.85
2018-05-26T11:45:14.262Z,5.70
2018-05-26T11:47:40.684Z,5.05
2018-05-26T11:50:06.940Z,4.55
2018-05-26T11:52:33.222Z,8.00
2018-05-26T11:55:00.668Z,4.12
2018-05-26T11:57:27.671Z,6.60
2018-05-26T11:59:53.916Z,3.70
2018-05-26T12:02:20.096Z,4.57
2018-05-26T12:04:47.047Z,8.38
2018-05-26T12:07:13.239Z,13.45
2018-05-26T12:09:40.669Z,5.18
2018-05-26T12:12:06.953Z,6.30
2018-05-26T12:14:33.193Z,3.83
2018-05-26T12:16:59.441Z,4.60
2018-05-26T12:19:25.673Z,4.78
2018-05-26T12:21:51.910Z,3.80
2018-05-26T12:24:18.137Z,3.58
2018-05-26T12:26:44.371Z,4.37
2018-05-26T12:29:10.599Z,4.68
2018-05-26T12:31:36.917Z,5.25
2018-05-26T12:34:03.262Z,4.80
2018-05-26T12:36:29.510Z,3.60
2018-05-26T12:38:56.468Z,5.55
2018-05-26T12:41:23.472Z,4.95
2018-05-26T12:43:49.738Z,3.55
2018-05-26T12:46:16.757Z,3.37
2018-05-26T12:48:43.063Z,3.70
2018-05-26T12:51:10.648Z,5.37
2018-05-26T12:53:36.986Z,5.07
2018-05-26T12:56:03.222Z,4.00
2018-05-26T12:58:30.195Z,3.40
2018-05-26T13:00:56.436Z,4.32
2018-05-26T13:03:22.664Z,5.07
2018-05-26T13:05:48.897Z,5.80
2018-05-26T13:08:15.363Z,4.47
2018-05-26T13:10:43.292Z,4.25
2018-05-26T13:13:09.575Z,4.43
2018-05-26T13:15:35.812Z,4.03
2018-05-26T13:18:02.056Z,5.35
2018-05-26T13:20:29.024Z,3.90
2018-05-26T13:22:55.241Z,3.95
2018-05-26T13:25:21.494Z,3.67
2018-05-26T13:27:47.783Z,5.10
2018-05-26T13:30:14.084Z,3.47
2018-05-26T13:32:40.344Z,4.73
2018-05-26T13:35:07.308Z,3.75
2018-05-26T13:37:33.524Z,3.83
2018-05-26T13:39:59.770Z,3.75
2018-05-26T13:42:25.995Z,4.18
2018-05-26T13:44:52.293Z,14.30
2018-05-26T13:47:19.277Z,6.57
2018-05-26T13:49:45.515Z,5.55
2018-05-26T13:52:11.803Z,5.23
2018-05-26T13:54:38.836Z,4.32
2018-05-26T13:57:05.116Z,5.07
2018-05-26T13:59:32.264Z,9.47
2018-05-26T14:01:58.542Z,7.20
2018-05-26T14:04:24.899Z,7.33
2018-05-26T14:06:51.147Z,3.67
2018-05-26T14:09:17.362Z,4.97
2018-05-26T14:11:43.570Z,5.07
2018-05-26T14:14:10.536Z,4.07
2018-05-26T14:16:36.841Z,4.00
2018-05-26T14:19:03.814Z,4.12
2018-05-26T14:21:30.061Z,4.97
2018-05-26T14:23:56.377Z,7.97
2018-05-26T14:26:22.656Z,4.00
2018-05-26T14:28:48.855Z,4.30
2018-05-26T14:31:15.066Z,5.47
2018-05-26T14:33:41.288Z,7.87
2018-05-26T14:36:07.513Z,4.20
2018-05-26T14:38:33.744Z,4.50
2018-05-26T14:41:00.000Z,4.20
2018-05-26T14:43:26.237Z,5.30
2018-05-26T14:45:52.452Z,3.73
2018-05-26T14:48:18.751Z,3.70
2018-05-26T14:50:44.974Z,5.07
2018-05-26T14:53:11.344Z,5.67
2018-05-26T14:55:37.657Z,4.60
2018-05-26T14:58:04.226Z,7.37
2018-05-26T15:00:30.527Z,9.47
2018-05-26T15:02:56.794Z,6.30
2018-05-26T15:05:23.776Z,5.07
2018-05-26T15:07:50.027Z,4.03
2018-05-26T15:10:16.476Z,4.40
2018-05-26T15:12:42.861Z,4.63
2018-05-26T15:15:09.357Z,13.47
2018-05-26T15:17:35.596Z,5.13
2018-05-26T15:20:02.624Z,5.60
2018-05-26T15:22:29.601Z,5.93
2018-05-26T15:24:56.556Z,5.17
2018-05-26T15:27:22.815Z,5.03
2018-05-26T15:29:49.065Z,6.20
2018-05-26T15:32:15.354Z,4.50
2018-05-26T15:34:41.616Z,5.13
2018-05-26T15:37:07.860Z,3.77
2018-05-26T15:39:34.078Z,3.93
2018-05-26T15:42:00.296Z,4.57
2018-05-26T15:44:26.515Z,6.27
2018-05-26T15:46:52.770Z,4.13
2018-05-26T15:49:19.048Z,5.07
2018-05-26T15:51:45.260Z,5.33
2018-05-26T15:54:11.656Z,4.37
2018-05-26T15:56:37.832Z,5.00
2018-05-26T15:59:04.027Z,4.83
2018-05-26T16:01:30.229Z,7.77
2018-05-26T16:03:56.499Z,6.53
2018-05-26T16:06:22.721Z,5.87
2018-05-26T16:08:48.939Z,5.03
2018-05-26T16:11:15.935Z,4.83
2018-05-26T16:13:42.265Z,4.77
2018-05-26T16:16:08.537Z,3.73
2018-05-26T16:18:34.824Z,5.60
2018-05-26T16:21:01.092Z,3.77
2018-05-26T16:23:27.409Z,4.63
2018-05-26T16:25:54.462Z,3.37
2018-05-26T16:28:20.810Z,6.43
2018-05-26T16:30:47.830Z,3.60
2018-05-26T16:33:14.029Z,5.40
2018-05-26T16:35:40.249Z,3.47
2018-05-26T16:38:06.492Z,5.10
2018-05-26T16:40:32.757Z,4.40
2018-05-26T16:42:58.977Z,4.30
2018-05-26T16:45:25.275Z,4.80
2018-05-26T16:47:51.750Z,3.97
2018-05-26T16:50:18.851Z,5.13
2018-05-26T16:52:45.160Z,4.43
2018-05-26T16:55:11.592Z,3.90
2018-05-26T16:57:37.836Z,4.10
2018-05-26T17:00:04.091Z,3.47
2018-05-26T17:02:30.345Z,4.73
2018-05-26T17:04:56.572Z,4.57
2018-05-26T17:07:22.828Z,5.27
2018-05-26T17:09:49.060Z,4.27
2018-05-26T17:12:15.315Z,6.33
2018-05-26T17:14:41.530Z,4.40
2018-05-26T17:17:07.773Z,6.43
2018-05-26T17:19:33.990Z,4.43
2018-05-26T17:22:00.248Z,4.27
2018-05-26T17:24:26.479Z,5.17
2018-05-26T17:26:52.713Z,5.43
2018-05-26T17:29:18.947Z,4.90
2018-05-26T17:31:45.188Z,5.77
2018-05-26T17:34:12.147Z,5.63
2018-05-26T17:36:39.083Z,5.17
2018-05-26T17:39:06.085Z,4.53
2018-05-26T17:41:32.301Z,6.07
2018-05-26T17:43:58.620Z,4.30
2018-05-26T17:46:24.844Z,4.33
2018-05-26T17:48:51.080Z,4.77
2018-05-26T17:51:17.300Z,5.80
2018-05-26T17:53:43.568Z,4.87
2018-05-26T17:56:09.937Z,4.30
2018-05-26T17:58:36.150Z,5.07
2018-05-26T18:01:03.183Z,4.30
2018-05-26T18:03:30.208Z,5.77
2018-05-26T18:05:57.207Z,4.60
2018-05-26T18:08:23.463Z,4.73
2018-05-26T18:10:50.437Z,4.83
2018-05-26T18:13:16.693Z,4.30
2018-05-26T18:15:43.628Z,4.50
2018-05-26T18:18:09.851Z,4.73
2018-05-26T18:20:36.090Z,4.47
2018-05-26T18:23:02.365Z,5.03
2018-05-26T18:25:28.970Z,4.93
2018-05-26T18:27:55.481Z,4.93
2018-05-26T18:30:22.468Z,7.30
2018-05-26T18:32:48.737Z,6.60
2018-05-26T18:35:14.905Z,4.80
2018-05-26T18:37:41.138Z,7.17
2018-05-26T18:40:07.975Z,6.03
2018-05-26T18:42:34.259Z,4.83
2018-05-26T18:45:00.541Z,5.00
2018-05-26T18:47:26.773Z,7.70
2018-05-26T18:49:53.034Z,6.23
2018-05-26T18:52:19.275Z,5.87
2018-05-26T18:54:45.596Z,4.80
2018-05-26T18:57:11.871Z,5.80
2018-05-26T18:59:39.968Z,6.53
2018-05-26T19:02:06.276Z,5.97
2018-05-26T19:04:32.560Z,4.83
2018-05-26T19:06:58.784Z,7.80
2018-05-26T19:09:25.063Z,6.10
2018-05-26T19:11:51.302Z,7.53
2018-05-26T19:14:17.561Z,5.23
2018-05-26T19:16:43.838Z,5.90
2018-05-26T19:19:10.079Z,4.97
2018-05-26T19:21:36.338Z,6.83
2018-05-26T19:24:02.555Z,6.13
2018-05-26T19:26:28.764Z,5.00
2018-05-26T19:28:55.029Z,6.40
2018-05-26T19:31:21.245Z,5.77
2018-05-26T19:33:47.557Z,8.10
2018-05-26T19:36:13.853Z,5.00
2018-05-26T19:38:40.163Z,6.20
2018-05-26T19:41:06.407Z,5.30
2018-05-26T19:43:32.640Z,5.57
2018-05-26T19:45:59.644Z,8.10
2018-05-26T19:48:25.896Z,6.57
2018-05-26T19:50:52.928Z,5.67
2018-05-26T19:53:19.388Z,8.67
2018-05-26T19:55:46.234Z,5.70
2018-05-26T19:58:13.276Z,9.30
2018-05-26T20:00:40.264Z,7.07
2018-05-26T20:03:06.494Z,11.17
2018-05-26T20:05:32.883Z,7.33
2018-05-26T20:07:59.810Z,7.47
2018-05-26T20:10:27.358Z,6.03
2018-05-26T20:12:56.635Z,7.47
2018-05-26T20:15:23.979Z,7.97
2018-05-26T20:17:50.293Z,11.27
2018-05-26T20:20:17.239Z,7.07
2018-05-26T20:22:43.591Z,8.37
2018-05-26T20:25:10.079Z,8.60
2018-05-26T20:27:37.812Z,8.00
2018-05-26T20:30:04.932Z,11.77
2018-05-26T20:32:31.172Z,6.70
2018-05-26T20:34:58.125Z,10.37
2018-05-26T20:37:24.748Z,6.50
2018-05-26T20:39:51.210Z,6.83
2018-05-26T20:42:17.494Z,13.47
2018-05-26T20:44:43.813Z,7.83
2018-05-26T20:47:10.034Z,9.13
2018-05-26T20:49:37.009Z,6.63
2018-05-26T20:52:03.289Z,9.53
2018-05-26T20:54:29.560Z,8.73
2018-05-26T20:56:56.029Z,7.77
2018-05-26T20:59:23.015Z,6.73
2018-05-26T21:01:49.283Z,6.90
2018-05-26T21:04:15.618Z,6.83
2018-05-26T21:06:43.734Z,8.27
2018-05-26T21:09:10.704Z,8.90
2018-05-26T21:11:37.089Z,9.80
2018-05-26T21:14:03.843Z,6.73
2018-05-26T21:16:30.363Z,6.67
2018-05-26T21:18:56.727Z,6.67
2018-05-26T21:21:23.018Z,6.80
2018-05-26T21:23:49.439Z,7.43
2018-05-26T21:26:15.897Z,7.10
2018-05-26T21:28:42.422Z,8.43
2018-05-26T21:31:09.165Z,8.20
2018-05-26T21:33:35.928Z,10.20
2018-05-26T21:36:02.246Z,7.93
2018-05-26T21:38:28.629Z,7.47
2018-05-26T21:40:54.954Z,7.30
2018-05-26T21:43:21.278Z,8.07
2018-05-26T21:45:48.052Z,12.67
2018-05-26T21:48:15.474Z,7.07
2018-05-26T21:50:42.321Z,10.13
2018-05-26T21:53:08.987Z,11.00
2018-05-26T21:55:36.187Z,9.37
2018-05-26T21:58:02.567Z,9.20
2018-05-26T22:00:29.510Z,12.30
2018-05-26T22:02:55.761Z,8.57
2018-05-26T22:05:21.977Z,9.97
2018-05-26T22:07:48.965Z,8.73
2018-05-26T22:10:16.281Z,9.60
2018-05-26T22:12:42.693Z,13.47
2018-05-26T22:15:08.967Z,10.30
2018-05-26T22:17:35.281Z,8.60
2018-05-26T22:20:02.296Z,9.67
2018-05-26T22:22:28.495Z,10.03
2018-05-26T22:24:54.739Z,9.90
2018-05-26T22:27:20.959Z,9.07
2018-05-26T22:29:47.251Z,9.10
2018-05-26T22:32:14.332Z,7.97
2018-05-26T22:34:40.687Z,9.33
2018-05-26T22:37:08.413Z,8.43
2018-05-26T22:39:34.636Z,8.27
2018-05-26T22:42:01.120Z,9.67
2018-05-26T22:44:28.118Z,10.17
2018-05-26T22:46:54.406Z,15.73
2018-05-26T22:49:20.725Z,13.23
2018-05-26T22:51:47.008Z,10.57
2018-05-26T22:54:13.289Z,11.80
2018-05-26T22:56:39.530Z,10.30
2018-05-26T22:59:06.543Z,8.73
2018-05-26T23:01:32.810Z,11.27
2018-05-26T23:04:00.235Z,10.87
2018-05-26T23:06:27.318Z,10.60
2018-05-26T23:08:54.557Z,8.03
2018-05-26T23:11:21.702Z,10.17
2018-05-26T23:13:48.622Z,9.90
2018-05-26T23:16:14.940Z,8.27
2018-05-26T23:18:41.919Z,8.67
2018-05-26T23:21:08.625Z,9.27
2018-05-26T23:23:35.204Z,8.93
2018-05-26T23:26:01.792Z,12.50
2018-05-26T23:28:28.063Z,11.77
2018-05-26T23:30:55.216Z,8.30
2018-05-26T23:33:22.455Z,8.70
2018-05-26T23:35:49.914Z,9.13
2018-05-26T23:38:16.306Z,8.77
2018-05-26T23:40:42.890Z,8.00
2018-05-26T23:43:09.183Z,10.87
2018-05-26T23:45:35.869Z,8.87
2018-05-26T23:48:02.297Z,8.23
2018-05-26T23:50:28.659Z,11.53
2018-05-26T23:52:55.770Z,9.47
2018-05-26T23:55:22.777Z,9.10
2018-05-26T23:57:49.452Z,9.07
